sensor_id;sensor_type;location;lat;lon;timestamp;P1;durP1;ratioP1;P2;durP2;ratioP2
76477;SDS011;65309;49.790;18.972;2024-03-22T00:06:54;31.80;;;16.88;;
76477;SDS011;65309;49.790;18.972;2024-03-22T00:11:56;29.98;;;19.58;;
76477;SDS011;65309;49.790;18.972;2024-03-22T00:16:58;33.20;;;18.35;;
76477;SDS011;65309;49.790;18.972;2024-03-22T00:21:59;36.97;;;19.13;;
76477;SDS011;65309;49.790;18.972;2024-03-22T00:27:01;35.25;;;19.48;;
76477;SDS011;65309;49.790;18.972;2024-03-22T00:32:03;28.73;;;19.00;;
76477;SDS011;65309;49.790;18.972;2024-03-22T00:37:05;33.92;;;21.05;;
76477;SDS011;65309;49.790;18.972;2024-03-22T00:42:06;30.00;;;19.02;;
76477;SDS011;65309;49.790;18.972;2024-03-22T00:47:09;30.65;;;17.67;;
76477;SDS011;65309;49.790;18.972;2024-03-22T00:52:10;26.13;;;14.85;;
76477;SDS011;65309;49.790;18.972;2024-03-22T00:57:11;27.20;;;17.92;;
76477;SDS011;65309;49.790;18.972;2024-03-22T01:02:14;33.85;;;21.13;;
76477;SDS011;65309;49.790;18.972;2024-03-22T01:07:15;36.20;;;21.23;;
76477;SDS011;65309;49.790;18.972;2024-03-22T01:12:16;29.23;;;18.15;;
76477;SDS011;65309;49.790;18.972;2024-03-22T01:17:19;32.38;;;19.50;;
76477;SDS011;65309;49.790;18.972;2024-03-22T01:22:20;29.77;;;18.05;;
76477;SDS011;65309;49.790;18.972;2024-03-22T01:27:21;33.58;;;19.58;;
76477;SDS011;65309;49.790;18.972;2024-03-22T01:32:24;29.92;;;19.27;;
76477;SDS011;65309;49.790;18.972;2024-03-22T01:37:25;28.65;;;15.65;;
76477;SDS011;65309;49.790;18.972;2024-03-22T01:42:26;32.10;;;17.92;;
76477;SDS011;65309;49.790;18.972;2024-03-22T01:47:29;32.85;;;17.58;;
76477;SDS011;65309;49.790;18.972;2024-03-22T01:52:30;26.70;;;15.48;;
76477;SDS011;65309;49.790;18.972;2024-03-22T01:57:32;26.05;;;15.20;;
76477;SDS011;65309;49.790;18.972;2024-03-22T02:02:35;23.55;;;16.55;;
76477;SDS011;65309;49.790;18.972;2024-03-22T02:07:36;22.55;;;14.75;;
76477;SDS011;65309;49.790;18.972;2024-03-22T02:12:38;21.50;;;13.43;;
76477;SDS011;65309;49.790;18.972;2024-03-22T02:17:40;23.35;;;14.32;;
76477;SDS011;65309;49.790;18.972;2024-03-22T02:22:41;21.70;;;12.52;;
76477;SDS011;65309;49.790;18.972;2024-03-22T02:27:44;27.80;;;16.45;;
76477;SDS011;65309;49.790;18.972;2024-03-22T02:37:46;13.77;;;9.60;;
76477;SDS011;65309;49.790;18.972;2024-03-22T02:42:49;20.17;;;11.40;;
76477;SDS011;65309;49.790;18.972;2024-03-22T02:47:50;14.88;;;11.32;;
76477;SDS011;65309;49.790;18.972;2024-03-22T02:52:51;27.35;;;14.65;;
76477;SDS011;65309;49.790;18.972;2024-03-22T02:57:55;21.13;;;11.82;;
76477;SDS011;65309;49.790;18.972;2024-03-22T03:02:57;20.85;;;14.52;;
76477;SDS011;65309;49.790;18.972;2024-03-22T03:07:58;17.13;;;11.90;;
76477;SDS011;65309;49.790;18.972;2024-03-22T03:13:01;20.25;;;12.27;;
76477;SDS011;65309;49.790;18.972;2024-03-22T03:18:02;22.35;;;13.77;;
76477;SDS011;65309;49.790;18.972;2024-03-22T03:23:04;20.73;;;12.57;;
76477;SDS011;65309;49.790;18.972;2024-03-22T03:28:06;20.42;;;13.73;;
76477;SDS011;65309;49.790;18.972;2024-03-22T03:33:08;17.98;;;12.00;;
76477;SDS011;65309;49.790;18.972;2024-03-22T03:38:09;22.40;;;12.75;;
76477;SDS011;65309;49.790;18.972;2024-03-22T03:43:12;18.88;;;12.10;;
76477;SDS011;65309;49.790;18.972;2024-03-22T03:48:13;17.92;;;11.45;;
76477;SDS011;65309;49.790;18.972;2024-03-22T03:53:14;22.88;;;15.25;;
76477;SDS011;65309;49.790;18.972;2024-03-22T03:58:16;26.95;;;15.13;;
76477;SDS011;65309;49.790;18.972;2024-03-22T04:03:18;21.90;;;12.52;;
76477;SDS011;65309;49.790;18.972;2024-03-22T04:08:20;19.63;;;12.50;;
76477;SDS011;65309;49.790;18.972;2024-03-22T04:13:22;22.65;;;14.02;;
76477;SDS011;65309;49.790;18.972;2024-03-22T04:18:24;23.13;;;12.77;;
76477;SDS011;65309;49.790;18.972;2024-03-22T04:23:25;25.95;;;14.75;;
76477;SDS011;65309;49.790;18.972;2024-03-22T04:28:28;21.70;;;14.15;;
76477;SDS011;65309;49.790;18.972;2024-03-22T04:33:30;21.83;;;13.88;;
76477;SDS011;65309;49.790;18.972;2024-03-22T04:38:31;23.15;;;12.90;;
76477;SDS011;65309;49.790;18.972;2024-03-22T04:43:34;21.02;;;13.85;;
76477;SDS011;65309;49.790;18.972;2024-03-22T04:48:35;23.08;;;13.25;;
76477;SDS011;65309;49.790;18.972;2024-03-22T04:53:36;22.88;;;14.57;;
76477;SDS011;65309;49.790;18.972;2024-03-22T04:58:39;25.98;;;14.85;;
76477;SDS011;65309;49.790;18.972;2024-03-22T05:03:40;24.42;;;14.57;;
76477;SDS011;65309;49.790;18.972;2024-03-22T05:08:42;23.55;;;12.98;;
76477;SDS011;65309;49.790;18.972;2024-03-22T05:13:44;21.95;;;14.30;;
76477;SDS011;65309;49.790;18.972;2024-03-22T05:18:45;24.35;;;13.27;;
76477;SDS011;65309;49.790;18.972;2024-03-22T05:23:46;19.52;;;13.82;;
76477;SDS011;65309;49.790;18.972;2024-03-22T05:28:49;20.08;;;12.35;;
76477;SDS011;65309;49.790;18.972;2024-03-22T05:33:50;21.63;;;12.93;;
76477;SDS011;65309;49.790;18.972;2024-03-22T05:38:51;20.70;;;13.23;;
76477;SDS011;65309;49.790;18.972;2024-03-22T05:43:54;23.48;;;14.63;;
76477;SDS011;65309;49.790;18.972;2024-03-22T05:48:55;22.30;;;14.07;;
76477;SDS011;65309;49.790;18.972;2024-03-22T05:53:57;27.85;;;15.65;;
76477;SDS011;65309;49.790;18.972;2024-03-22T05:59:00;24.80;;;16.98;;
76477;SDS011;65309;49.790;18.972;2024-03-22T06:04:01;23.90;;;13.50;;
76477;SDS011;65309;49.790;18.972;2024-03-22T06:09:03;22.77;;;13.75;;
76477;SDS011;65309;49.790;18.972;2024-03-22T06:14:06;24.67;;;14.38;;
76477;SDS011;65309;49.790;18.972;2024-03-22T06:19:07;24.10;;;15.50;;
76477;SDS011;65309;49.790;18.972;2024-03-22T06:24:08;23.95;;;14.40;;
76477;SDS011;65309;49.790;18.972;2024-03-22T06:29:11;22.90;;;14.82;;
76477;SDS011;65309;49.790;18.972;2024-03-22T06:34:13;26.38;;;15.43;;
76477;SDS011;65309;49.790;18.972;2024-03-22T06:39:14;26.35;;;17.52;;
76477;SDS011;65309;49.790;18.972;2024-03-22T06:44:17;29.73;;;18.50;;
76477;SDS011;65309;49.790;18.972;2024-03-22T06:49:18;27.75;;;16.55;;
76477;SDS011;65309;49.790;18.972;2024-03-22T06:54:19;23.83;;;14.10;;
76477;SDS011;65309;49.790;18.972;2024-03-22T06:59:22;26.50;;;14.82;;
76477;SDS011;65309;49.790;18.972;2024-03-22T07:04:23;26.23;;;16.05;;
76477;SDS011;65309;49.790;18.972;2024-03-22T07:09:24;21.23;;;12.77;;
76477;SDS011;65309;49.790;18.972;2024-03-22T07:19:30;22.20;;;11.63;;
76477;SDS011;65309;49.790;18.972;2024-03-22T07:24:31;17.92;;;12.02;;
76477;SDS011;65309;49.790;18.972;2024-03-22T07:29:34;28.95;;;15.27;;
76477;SDS011;65309;49.790;18.972;2024-03-22T07:34:35;28.80;;;14.43;;
76477;SDS011;65309;49.790;18.972;2024-03-22T07:39:37;28.45;;;15.10;;
76477;SDS011;65309;49.790;18.972;2024-03-22T07:44:39;28.58;;;15.35;;
76477;SDS011;65309;49.790;18.972;2024-03-22T07:49:40;27.25;;;15.65;;
76477;SDS011;65309;49.790;18.972;2024-03-22T07:54:42;25.88;;;14.88;;
76477;SDS011;65309;49.790;18.972;2024-03-22T07:59:44;22.42;;;12.15;;
76477;SDS011;65309;49.790;18.972;2024-03-22T08:04:46;20.40;;;11.25;;
76477;SDS011;65309;49.790;18.972;2024-03-22T08:09:47;16.42;;;9.43;;
76477;SDS011;65309;49.790;18.972;2024-03-22T08:14:49;17.08;;;9.73;;
76477;SDS011;65309;49.790;18.972;2024-03-22T08:19:51;19.58;;;10.63;;
76477;SDS011;65309;49.790;18.972;2024-03-22T08:24:52;16.42;;;10.00;;
76477;SDS011;65309;49.790;18.972;2024-03-22T08:29:58;14.32;;;9.18;;
76477;SDS011;65309;49.790;18.972;2024-03-22T08:34:59;17.63;;;9.80;;
76477;SDS011;65309;49.790;18.972;2024-03-22T08:40:01;16.60;;;10.20;;
76477;SDS011;65309;49.790;18.972;2024-03-22T08:45:07;14.25;;;8.98;;
76477;SDS011;65309;49.790;18.972;2024-03-22T08:50:09;17.92;;;10.38;;
76477;SDS011;65309;49.790;18.972;2024-03-22T08:55:11;16.77;;;9.93;;
76477;SDS011;65309;49.790;18.972;2024-03-22T09:00:14;18.30;;;11.32;;
76477;SDS011;65309;49.790;18.972;2024-03-22T09:05:15;23.85;;;11.40;;
76477;SDS011;65309;49.790;18.972;2024-03-22T09:10:16;23.15;;;13.40;;
76477;SDS011;65309;49.790;18.972;2024-03-22T09:15:19;20.80;;;10.43;;
76477;SDS011;65309;49.790;18.972;2024-03-22T09:20:20;21.13;;;13.40;;
76477;SDS011;65309;49.790;18.972;2024-03-22T09:25:21;14.85;;;9.40;;
76477;SDS011;65309;49.790;18.972;2024-03-22T09:30:24;22.17;;;11.00;;
76477;SDS011;65309;49.790;18.972;2024-03-22T09:35:25;23.15;;;12.00;;
76477;SDS011;65309;49.790;18.972;2024-03-22T09:40:27;14.65;;;9.25;;
76477;SDS011;65309;49.790;18.972;2024-03-22T09:45:30;21.95;;;10.85;;
76477;SDS011;65309;49.790;18.972;2024-03-22T09:50:32;22.05;;;13.05;;
76477;SDS011;65309;49.790;18.972;2024-03-22T09:55:35;17.35;;;9.85;;
76477;SDS011;65309;49.790;18.972;2024-03-22T10:00:39;14.82;;;9.35;;
76477;SDS011;65309;49.790;18.972;2024-03-22T10:05:40;19.05;;;10.32;;
76477;SDS011;65309;49.790;18.972;2024-03-22T10:10:42;18.38;;;8.98;;
76477;SDS011;65309;49.790;18.972;2024-03-22T10:15:45;14.40;;;9.60;;
76477;SDS011;65309;49.790;18.972;2024-03-22T10:20:46;14.95;;;10.00;;
76477;SDS011;65309;49.790;18.972;2024-03-22T10:25:48;20.05;;;11.88;;
76477;SDS011;65309;49.790;18.972;2024-03-22T10:30:50;24.15;;;12.90;;
76477;SDS011;65309;49.790;18.972;2024-03-22T10:35:53;14.70;;;8.25;;
76477;SDS011;65309;49.790;18.972;2024-03-22T10:40:54;18.42;;;10.98;;
76477;SDS011;65309;49.790;18.972;2024-03-22T10:46:00;18.88;;;12.57;;
76477;SDS011;65309;49.790;18.972;2024-03-22T10:51:04;18.70;;;12.18;;
76477;SDS011;65309;49.790;18.972;2024-03-22T10:56:07;14.57;;;9.23;;
76477;SDS011;65309;49.790;18.972;2024-03-22T11:01:21;19.83;;;11.93;;
76477;SDS011;65309;49.790;18.972;2024-03-22T11:06:23;16.92;;;9.05;;
76477;SDS011;65309;49.790;18.972;2024-03-22T11:11:25;14.75;;;9.65;;
76477;SDS011;65309;49.790;18.972;2024-03-22T11:16:31;13.15;;;7.50;;
76477;SDS011;65309;49.790;18.972;2024-03-22T11:21:32;16.48;;;10.35;;
76477;SDS011;65309;49.790;18.972;2024-03-22T11:26:34;16.98;;;10.15;;
76477;SDS011;65309;49.790;18.972;2024-03-22T11:31:36;15.27;;;11.90;;
76477;SDS011;65309;49.790;18.972;2024-03-22T11:41:38;16.67;;;9.90;;
76477;SDS011;65309;49.790;18.972;2024-03-22T11:46:41;17.98;;;11.35;;
76477;SDS011;65309;49.790;18.972;2024-03-22T11:51:43;17.10;;;11.00;;
76477;SDS011;65309;49.790;18.972;2024-03-22T11:56:45;17.08;;;10.80;;
76477;SDS011;65309;49.790;18.972;2024-03-22T12:01:48;17.63;;;10.88;;
76477;SDS011;65309;49.790;18.972;2024-03-22T12:11:50;20.33;;;12.15;;
76477;SDS011;65309;49.790;18.972;2024-03-22T12:16:53;19.05;;;10.70;;
76477;SDS011;65309;49.790;18.972;2024-03-22T12:26:55;20.73;;;12.07;;
76477;SDS011;65309;49.790;18.972;2024-03-22T12:31:58;17.65;;;12.43;;
76477;SDS011;65309;49.790;18.972;2024-03-22T12:37:01;16.35;;;12.13;;
76477;SDS011;65309;49.790;18.972;2024-03-22T12:42:03;19.02;;;12.13;;
76477;SDS011;65309;49.790;18.972;2024-03-22T12:47:06;20.45;;;11.40;;
76477;SDS011;65309;49.790;18.972;2024-03-22T12:52:08;17.63;;;11.23;;
76477;SDS011;65309;49.790;18.972;2024-03-22T12:57:10;18.42;;;11.07;;
76477;SDS011;65309;49.790;18.972;2024-03-22T13:02:13;20.08;;;12.45;;
76477;SDS011;65309;49.790;18.972;2024-03-22T13:07:14;18.77;;;11.52;;
76477;SDS011;65309;49.790;18.972;2024-03-22T13:12:15;17.65;;;11.13;;
76477;SDS011;65309;49.790;18.972;2024-03-22T13:17:18;15.82;;;11.07;;
76477;SDS011;65309;49.790;18.972;2024-03-22T13:22:19;15.48;;;9.60;;
76477;SDS011;65309;49.790;18.972;2024-03-22T13:27:20;13.77;;;9.85;;
76477;SDS011;65309;49.790;18.972;2024-03-22T13:32:24;16.23;;;11.80;;
76477;SDS011;65309;49.790;18.972;2024-03-22T13:37:26;16.55;;;11.73;;
76477;SDS011;65309;49.790;18.972;2024-03-22T13:42:27;17.00;;;12.25;;
76477;SDS011;65309;49.790;18.972;2024-03-22T13:47:29;18.17;;;11.85;;
76477;SDS011;65309;49.790;18.972;2024-03-22T13:52:31;15.50;;;11.02;;
76477;SDS011;65309;49.790;18.972;2024-03-22T13:57:32;17.67;;;12.00;;
76477;SDS011;65309;49.790;18.972;2024-03-22T14:02:34;14.30;;;10.30;;
76477;SDS011;65309;49.790;18.972;2024-03-22T14:07:36;20.85;;;11.02;;
76477;SDS011;65309;49.790;18.972;2024-03-22T14:12:41;15.98;;;10.68;;
76477;SDS011;65309;49.790;18.972;2024-03-22T14:17:43;14.15;;;9.85;;
76477;SDS011;65309;49.790;18.972;2024-03-22T14:22:46;14.45;;;10.27;;
76477;SDS011;65309;49.790;18.972;2024-03-22T14:32:51;13.40;;;8.63;;
76477;SDS011;65309;49.790;18.972;2024-03-22T14:37:53;11.95;;;7.88;;
76477;SDS011;65309;49.790;18.972;2024-03-22T14:42:54;11.07;;;7.78;;
76477;SDS011;65309;49.790;18.972;2024-03-22T14:47:57;13.63;;;9.48;;
76477;SDS011;65309;49.790;18.972;2024-03-22T14:57:59;12.63;;;8.15;;
76477;SDS011;65309;49.790;18.972;2024-03-22T15:03:02;8.32;;;6.22;;
76477;SDS011;65309;49.790;18.972;2024-03-22T15:08:03;9.40;;;7.50;;
76477;SDS011;65309;49.790;18.972;2024-03-22T15:13:05;7.30;;;5.38;;
76477;SDS011;65309;49.790;18.972;2024-03-22T15:18:09;9.10;;;6.22;;
76477;SDS011;65309;49.790;18.972;2024-03-22T15:23:10;12.77;;;7.10;;
76477;SDS011;65309;49.790;18.972;2024-03-22T15:28:12;8.82;;;5.50;;
76477;SDS011;65309;49.790;18.972;2024-03-22T15:33:15;8.35;;;5.93;;
76477;SDS011;65309;49.790;18.972;2024-03-22T15:38:17;7.88;;;5.32;;
76477;SDS011;65309;49.790;18.972;2024-03-22T15:43:20;9.15;;;5.47;;
76477;SDS011;65309;49.790;18.972;2024-03-22T15:48:25;7.88;;;5.78;;
76477;SDS011;65309;49.790;18.972;2024-03-22T15:53:26;11.07;;;5.55;;
76477;SDS011;65309;49.790;18.972;2024-03-22T15:58:28;12.73;;;6.38;;
76477;SDS011;65309;49.790;18.972;2024-03-22T16:03:32;7.80;;;5.85;;
76477;SDS011;65309;49.790;18.972;2024-03-22T16:08:33;9.27;;;5.28;;
76477;SDS011;65309;49.790;18.972;2024-03-22T16:13:35;9.02;;;5.57;;
76477;SDS011;65309;49.790;18.972;2024-03-22T16:18:37;12.98;;;6.97;;
76477;SDS011;65309;49.790;18.972;2024-03-22T16:28:39;12.95;;;7.25;;
76477;SDS011;65309;49.790;18.972;2024-03-22T16:33:42;18.25;;;7.82;;
76477;SDS011;65309;49.790;18.972;2024-03-22T16:38:43;9.77;;;5.82;;
76477;SDS011;65309;49.790;18.972;2024-03-22T16:43:44;9.32;;;5.53;;
76477;SDS011;65309;49.790;18.972;2024-03-22T16:48:47;11.23;;;5.38;;
76477;SDS011;65309;49.790;18.972;2024-03-22T16:58:49;14.00;;;6.55;;
76477;SDS011;65309;49.790;18.972;2024-03-22T17:03:53;13.80;;;6.72;;
76477;SDS011;65309;49.790;18.972;2024-03-22T17:13:55;9.52;;;6.63;;
76477;SDS011;65309;49.790;18.972;2024-03-22T17:18:59;13.40;;;6.72;;
76477;SDS011;65309;49.790;18.972;2024-03-22T17:24:00;16.83;;;7.85;;
76477;SDS011;65309;49.790;18.972;2024-03-22T17:29:01;11.55;;;5.13;;
76477;SDS011;65309;49.790;18.972;2024-03-22T17:34:04;8.82;;;4.97;;
76477;SDS011;65309;49.790;18.972;2024-03-22T17:39:05;7.53;;;3.83;;
76477;SDS011;65309;49.790;18.972;2024-03-22T17:44:07;6.55;;;3.38;;
76477;SDS011;65309;49.790;18.972;2024-03-22T17:49:09;5.03;;;3.50;;
76477;SDS011;65309;49.790;18.972;2024-03-22T17:54:10;8.27;;;4.00;;
76477;SDS011;65309;49.790;18.972;2024-03-22T17:59:12;17.92;;;10.55;;
76477;SDS011;65309;49.790;18.972;2024-03-22T18:04:14;9.68;;;6.15;;
76477;SDS011;65309;49.790;18.972;2024-03-22T18:09:15;10.57;;;5.72;;
76477;SDS011;65309;49.790;18.972;2024-03-22T18:14:17;11.93;;;5.55;;
76477;SDS011;65309;49.790;18.972;2024-03-22T18:19:20;8.75;;;4.95;;
76477;SDS011;65309;49.790;18.972;2024-03-22T18:24:22;11.75;;;5.72;;
76477;SDS011;65309;49.790;18.972;2024-03-22T18:29:23;9.35;;;6.05;;
76477;SDS011;65309;49.790;18.972;2024-03-22T18:34:26;10.93;;;5.93;;
76477;SDS011;65309;49.790;18.972;2024-03-22T18:39:27;8.50;;;5.28;;
76477;SDS011;65309;49.790;18.972;2024-03-22T18:44:28;9.93;;;5.90;;
76477;SDS011;65309;49.790;18.972;2024-03-22T18:49:31;8.40;;;5.43;;
76477;SDS011;65309;49.790;18.972;2024-03-22T18:54:32;8.25;;;5.18;;
76477;SDS011;65309;49.790;18.972;2024-03-22T18:59:34;9.20;;;4.55;;
76477;SDS011;65309;49.790;18.972;2024-03-22T19:04:37;6.47;;;4.22;;
76477;SDS011;65309;49.790;18.972;2024-03-22T19:09:38;7.68;;;4.82;;
76477;SDS011;65309;49.790;18.972;2024-03-22T19:14:39;6.63;;;4.53;;
76477;SDS011;65309;49.790;18.972;2024-03-22T19:19:44;6.82;;;4.10;;
76477;SDS011;65309;49.790;18.972;2024-03-22T19:24:45;8.20;;;5.05;;
76477;SDS011;65309;49.790;18.972;2024-03-22T19:29:46;9.23;;;4.47;;
76477;SDS011;65309;49.790;18.972;2024-03-22T19:34:49;8.07;;;4.80;;
76477;SDS011;65309;49.790;18.972;2024-03-22T19:39:50;8.52;;;5.57;;
76477;SDS011;65309;49.790;18.972;2024-03-22T19:44:51;8.50;;;5.90;;
76477;SDS011;65309;49.790;18.972;2024-03-22T19:49:54;6.93;;;4.97;;
76477;SDS011;65309;49.790;18.972;2024-03-22T19:54:55;6.82;;;4.40;;
76477;SDS011;65309;49.790;18.972;2024-03-22T19:59:56;8.15;;;5.20;;
76477;SDS011;65309;49.790;18.972;2024-03-22T20:05:00;9.30;;;5.30;;
76477;SDS011;65309;49.790;18.972;2024-03-22T20:10:01;11.43;;;6.18;;
76477;SDS011;65309;49.790;18.972;2024-03-22T20:15:04;11.75;;;6.65;;
76477;SDS011;65309;49.790;18.972;2024-03-22T20:20:10;7.53;;;5.05;;
76477;SDS011;65309;49.790;18.972;2024-03-22T20:25:11;9.88;;;5.55;;
76477;SDS011;65309;49.790;18.972;2024-03-22T20:30:13;7.90;;;4.80;;
76477;SDS011;65309;49.790;18.972;2024-03-22T20:35:15;8.77;;;6.13;;
